Time;durP1;ratioP1;P1;durP2;ratioP2;P2;SDS_P1;SDS_P2;PMS_P1;PMS_P2;Temp;Humidity;BMP_temperature;BMP_pressure;BME280_temperature;BME280_humidity;BME280_pressure;Samples;Min_cycle;Max_cycle;Signal;HPM_P1;HPM_P2
2022/01/10 00:00:54;;;;;;;18.90;10.00;;;;;;;1.67;83.93;100332.27;107409;1250;67948;-91
2022/01/10 00:03:24;;;;;;;18.00;9.70;;;;;;;1.65;83.99;100333.05;107469;1254;72103;-92
2022/01/10 00:05:53;;;;;;;18.90;10.80;;;;;;;1.66;84.16;100334.88;107590;1252;59467;-93
2022/01/10 00:08:23;;;;;;;16.10;9.40;;;;;;;1.61;84.10;100344.51;107584;1251;59751;-92
2022/01/10 00:10:52;;;;;;;17.60;10.10;;;;;;;1.65;84.08;100346.61;107594;1250;73865;-90
2022/01/10 00:13:21;;;;;;;15.90;9.50;;;;;;;1.65;84.12;100352.95;107524;1251;72752;-89
2022/01/10 00:15:50;;;;;;;16.90;9.40;;;;;;;1.69;84.07;100350.19;107687;1251;69684;-90
2022/01/10 00:18:19;;;;;;;17.60;9.50;;;;;;;1.72;83.88;100340.80;108027;1251;72037;-91
2022/01/10 00:20:48;;;;;;;15.50;9.60;;;;;;;1.67;83.77;100335.55;108163;1251;60466;-93
2022/01/10 00:23:18;;;;;;;16.40;9.70;;;;;;;1.61;83.80;100333.88;107524;1250;61788;-88
2022/01/10 00:25:47;;;;;;;14.60;8.70;;;;;;;1.61;84.06;100335.60;107524;1251;74637;-89
2022/01/10 00:28:16;;;;;;;13.50;8.00;;;;;;;1.64;83.69;100338.23;107392;1251;72973;-85
2022/01/10 00:30:44;;;;;;;14.30;8.50;;;;;;;1.64;83.96;100339.62;107332;1251;71531;-88
2022/01/10 00:33:13;;;;;;;15.30;9.00;;;;;;;1.61;83.95;100333.71;107354;1252;74419;-88
2022/01/10 00:35:42;;;;;;;15.30;8.60;;;;;;;1.52;84.09;100334.92;107733;1251;59526;-90
2022/01/10 00:38:11;;;;;;;16.70;9.60;;;;;;;1.39;84.20;100339.25;107936;1251;60423;-88
2022/01/10 00:40:42;;;;;;;15.20;8.10;;;;;;;1.48;84.04;100342.46;108156;1252;73127;-84
2022/01/10 00:43:18;;;;;;;15.70;9.30;;;;;;;1.48;83.98;100340.77;107941;1251;73009;-84
2022/01/10 00:45:48;;;;;;;15.90;9.10;;;;;;;1.47;84.14;100341.80;107833;1251;70005;-86
2022/01/10 00:48:17;;;;;;;15.70;9.70;;;;;;;1.47;83.96;100341.14;107594;1251;74917;-86
2022/01/10 00:50:46;;;;;;;18.20;9.60;;;;;;;1.41;83.90;100340.21;107491;1251;61300;-87
2022/01/10 00:53:15;;;;;;;18.10;9.10;;;;;;;1.26;84.28;100341.48;107476;1252;60424;-85
2022/01/10 00:55:44;;;;;;;18.60;10.80;;;;;;;1.29;84.46;100344.24;107321;1252;73510;-86
2022/01/10 00:58:13;;;;;;;18.30;9.90;;;;;;;1.20;84.51;100349.09;108123;1251;70376;-92
2022/01/10 01:00:42;;;;;;;19.30;10.40;;;;;;;1.21;84.60;100346.99;107668;1251;68736;-89
2022/01/10 01:03:12;;;;;;;18.20;10.00;;;;;;;1.28;84.01;100351.33;107478;1250;73092;-89
2022/01/10 01:05:43;;;;;;;19.80;10.00;;;;;;;1.27;84.25;100352.57;107267;1251;430034;-90
2022/01/10 01:08:13;;;;;;;16.00;8.60;;;;;;;1.22;84.66;100351.40;107492;1251;59849;-90
2022/01/10 01:13:41;;;;;;;16.10;9.20;;;;;;;1.18;84.59;100352.42;107570;1250;73240;-91
2022/01/10 01:16:14;;;;;;;16.00;8.60;;;;;;;1.20;84.13;100351.49;107521;1251;68399;-89
2022/01/10 01:24:08;;;;;;;19.00;9.70;;;;;;;1.18;84.47;100360.33;107125;1252;59544;-89
2022/01/10 01:26:45;;;;;;;17.40;9.70;;;;;;;1.19;84.16;100365.09;107359;1250;74148;-92
2022/01/10 01:29:22;;;;;;;17.20;8.80;;;;;;;1.17;84.13;100366.51;107209;1250;72912;-88
2022/01/10 01:31:52;;;;;;;15.80;9.40;;;;;;;1.20;84.38;100365.40;106989;1252;71236;-88
2022/01/10 01:34:24;;;;;;;19.00;9.80;;;;;;;1.13;84.51;100368.41;107029;1252;73936;-87
2022/01/10 01:36:56;;;;;;;21.00;9.60;;;;;;;1.14;84.47;100367.16;106970;1251;59573;-88
2022/01/10 01:39:29;;;;;;;18.10;9.90;;;;;;;1.12;84.88;100363.31;107243;1251;60571;-87
2022/01/10 01:42:06;;;;;;;16.00;9.40;;;;;;;1.20;84.59;100364.70;107213;1252;71510;-88
2022/01/10 01:44:36;;;;;;;16.00;9.20;;;;;;;1.23;84.46;100366.13;108048;1252;69673;-86
2022/01/10 01:47:05;;;;;;;17.40;10.00;;;;;;;1.20;84.22;100365.20;108127;1252;68458;-86
2022/01/10 01:49:35;;;;;;;19.30;10.40;;;;;;;1.20;84.06;100370.86;107458;1252;73983;-87
2022/01/10 01:52:04;;;;;;;20.80;9.90;;;;;;;1.19;83.95;100377.95;108136;1251;59684;-87
2022/01/10 01:54:33;;;;;;;16.80;9.70;;;;;;;1.16;84.25;100376.35;107637;1252;60523;-86
2022/01/10 01:57:05;;;;;;;17.20;9.90;;;;;;;1.21;84.26;100383.70;107654;1250;74646;-84
2022/01/10 01:59:38;;;;;;;16.80;10.20;;;;;;;1.17;84.14;100382.98;107301;1252;72694;-85
2022/01/10 02:02:07;;;;;;;21.20;10.20;;;;;;;1.19;84.28;100385.84;107028;1252;70347;-86
2022/01/10 02:04:36;;;;;;;21.80;11.40;;;;;;;1.24;84.28;100379.83;107548;1252;72456;-85
2022/01/10 02:07:05;;;;;;;18.20;9.00;;;;;;;1.24;84.35;100379.13;107879;1251;59412;-87
2022/01/10 02:09:36;;;;;;;21.30;11.80;;;;;;;1.24;84.43;100377.21;106653;1255;62535;-82
2022/01/10 02:12:05;;;;;;;19.60;10.80;;;;;;;1.25;84.36;100372.38;106909;1251;74092;-82
2022/01/10 02:14:34;;;;;;;22.00;11.90;;;;;;;1.29;83.98;100373.11;106920;1254;70620;-83
2022/01/10 02:17:05;;;;;;;23.50;11.10;;;;;;;1.22;84.13;100376.43;106901;1253;68782;-90
2022/01/10 02:20:04;;;;;;;22.70;12.30;;;;;;;1.22;84.34;100378.52;107175;1251;72383;-89
2022/01/10 02:22:37;;;;;;;21.10;11.10;;;;;;;1.14;84.57;100377.64;107039;1253;61948;-90
2022/01/10 02:25:23;;;;;;;23.50;11.70;;;;;;;1.27;84.05;100375.23;107208;1252;61022;-94
2022/01/10 02:27:53;;;;;;;22.00;11.10;;;;;;;1.28;83.83;100376.70;107404;1252;73341;-93
2022/01/10 02:30:23;;;;;;;23.50;12.00;;;;;;;1.17;84.38;100378.71;107570;1253;71864;-91
2022/01/10 02:32:56;;;;;;;22.20;11.80;;;;;;;1.16;84.54;100381.98;107569;1252;70631;-92
2022/01/10 02:35:41;;;;;;;23.80;11.60;;;;;;;1.23;84.31;100374.02;107601;1253;74396;-92
2022/01/10 02:38:10;;;;;;;21.90;11.50;;;;;;;1.26;83.82;100380.23;107893;1251;60543;-91
2022/01/10 02:40:39;;;;;;;22.50;11.70;;;;;;;1.26;84.19;100376.29;109062;1253;60497;-92
2022/01/10 02:43:08;;;;;;;22.20;11.50;;;;;;;1.34;84.21;100373.40;108148;1251;75598;-93
2022/01/10 02:45:38;;;;;;;19.60;10.50;;;;;;;1.34;84.24;100372.02;107797;1252;73779;-92
2022/01/10 02:48:09;;;;;;;18.60;9.70;;;;;;;1.35;84.06;100371.30;108120;1251;69174;-91
2022/01/10 02:50:38;;;;;;;22.90;12.10;;;;;;;1.30;83.96;100373.74;107419;1251;72039;-93
2022/01/10 02:53:08;;;;;;;22.60;12.30;;;;;;;1.25;83.95;100376.84;107622;1252;59797;-92
2022/01/10 02:55:37;;;;;;;18.90;10.50;;;;;;;1.23;84.41;100380.89;107241;1254;60161;-92
2022/01/10 02:58:06;;;;;;;20.80;11.40;;;;;;;1.29;83.60;100382.17;107482;1252;74156;-92
2022/01/10 03:00:36;;;;;;;20.50;11.10;;;;;;;1.24;83.68;100391.64;107978;1252;73467;-92
2022/01/10 03:03:07;;;;;;;18.90;10.10;;;;;;;1.20;83.81;100394.88;107569;1253;70445;-87
2022/01/10 03:05:36;;;;;;;18.40;10.40;;;;;;;1.32;84.23;100394.77;107288;1251;73497;-89
2022/01/10 03:08:05;;;;;;;18.60;10.70;;;;;;;1.39;84.19;100395.19;107293;1252;60308;-87
2022/01/10 03:10:35;;;;;;;18.70;10.80;;;;;;;1.36;83.91;100397.86;107255;1252;61375;-88
2022/01/10 03:13:04;;;;;;;17.70;10.20;;;;;;;1.40;83.75;100406.14;107616;1252;76169;-92
2022/01/10 03:15:33;;;;;;;20.30;10.50;;;;;;;1.34;83.30;100413.38;107338;1253;72044;-87
2022/01/10 03:18:02;;;;;;;18.90;10.20;;;;;;;1.28;83.48;100411.75;107447;1251;68612;-92
2022/01/10 03:20:31;;;;;;;16.80;9.70;;;;;;;1.36;83.48;100416.25;107678;1251;71493;-89
2022/01/10 03:23:00;;;;;;;18.60;9.70;;;;;;;1.33;83.17;100415.47;108208;1253;59497;-91
2022/01/10 03:25:29;;;;;;;18.40;10.20;;;;;;;1.27;83.18;100417.60;108455;1251;59627;-88
2022/01/10 03:28:00;;;;;;;18.10;10.80;;;;;;;1.00;83.81;100417.44;107525;1252;72162;-83
2022/01/10 03:30:30;;;;;;;16.60;9.40;;;;;;;1.11;83.75;100420.95;107515;1253;69594;-85
2022/01/10 03:33:01;;;;;;;16.00;9.20;;;;;;;1.17;83.65;100426.21;107464;1252;69809;-85
2022/01/10 03:35:34;;;;;;;17.20;9.50;;;;;;;1.25;83.45;100431.04;107939;1252;72499;-92
2022/01/10 03:38:04;;;;;;;13.90;7.60;;;;;;;1.24;83.37;100433.52;108811;1250;59828;-93
2022/01/10 03:40:35;;;;;;;16.30;9.20;;;;;;;1.25;83.11;100429.70;108661;1251;60764;-88
2022/01/10 03:43:07;;;;;;;17.50;10.00;;;;;;;1.26;83.05;100436.52;107681;1252;73166;-87
2022/01/10 03:45:36;;;;;;;17.20;10.90;;;;;;;1.24;83.12;100437.80;107659;1250;70373;-88
2022/01/10 03:48:06;;;;;;;14.60;8.50;;;;;;;1.18;82.90;100448.98;107811;1252;69815;-87
2022/01/10 03:50:36;;;;;;;19.50;9.30;;;;;;;1.14;82.75;100453.60;107671;1252;73144;-88
2022/01/10 03:53:05;;;;;;;17.10;10.10;;;;;;;1.17;83.18;100455.23;107636;1252;62141;-90
2022/01/10 03:55:34;;;;;;;17.10;10.20;;;;;;;1.17;82.86;100461.05;107574;1252;59389;-90
2022/01/10 03:58:05;;;;;;;19.10;10.90;;;;;;;1.17;82.89;100468.77;107462;1252;74552;-87
2022/01/10 04:00:35;;;;;;;17.10;9.90;;;;;;;1.06;82.84;100475.34;108654;1252;72765;-88
2022/01/10 04:03:06;;;;;;;17.80;10.20;;;;;;;1.05;83.02;100476.41;107654;1251;69258;-89
2022/01/10 04:05:50;;;;;;;18.60;11.00;;;;;;;1.04;83.09;100484.52;107355;1253;74344;-88
2022/01/10 04:08:19;;;;;;;17.30;9.90;;;;;;;1.01;83.19;100490.09;107565;1252;60832;-89
2022/01/10 04:10:48;;;;;;;17.40;10.70;;;;;;;1.11;83.40;100493.84;108086;1252;61481;-89
2022/01/10 04:13:17;;;;;;;14.80;9.40;;;;;;;1.08;82.79;100501.68;108457;1252;72507;-77
2022/01/10 04:15:47;;;;;;;17.20;10.20;;;;;;;1.19;83.30;100501.64;108303;1253;68634;-89
2022/01/10 04:18:16;;;;;;;19.50;10.60;;;;;;;1.20;82.58;100505.72;107652;1252;67950;-90
2022/01/10 04:20:46;;;;;;;17.30;10.80;;;;;;;1.09;82.25;100503.02;107325;1254;73170;-89
2022/01/10 04:23:17;;;;;;;17.80;10.10;;;;;;;1.08;82.27;100510.41;107404;1252;60560;-90
2022/01/10 04:25:46;;;;;;;18.40;10.10;;;;;;;1.06;82.17;100519.26;107612;1253;60734;-88
2022/01/10 04:28:16;;;;;;;18.60;9.70;;;;;;;1.08;82.63;100526.90;107488;1251;73908;-91
2022/01/10 04:30:45;;;;;;;19.70;11.10;;;;;;;1.09;82.35;100528.77;107892;1251;72986;-91
2022/01/10 04:33:18;;;;;;;17.80;9.80;;;;;;;1.06;82.95;100525.59;108133;1251;71482;-88
2022/01/10 04:35:49;;;;;;;17.70;10.10;;;;;;;1.11;82.88;100529.20;107661;1252;72543;-88
2022/01/10 04:38:18;;;;;;;19.50;9.30;;;;;;;1.06;82.44;100535.72;107399;1252;59335;-76
2022/01/10 04:40:48;;;;;;;17.60;9.70;;;;;;;0.97;82.33;100539.14;107261;1251;60629;-91
2022/01/10 04:43:17;;;;;;;21.80;10.70;;;;;;;0.94;82.46;100544.38;107469;1252;72000;-87
2022/01/10 04:45:47;;;;;;;18.30;10.20;;;;;;;0.93;82.53;100549.39;107496;1252;73328;-91
2022/01/10 04:48:17;;;;;;;16.50;9.30;;;;;;;0.92;82.45;100548.57;107825;1252;72002;-90
2022/01/10 04:53:36;;;;;;;18.30;10.30;;;;;;;0.87;82.58;100549.77;107612;1251;61420;-88
2022/01/10 04:56:05;;;;;;;19.20;10.80;;;;;;;0.88;82.42;100548.38;107342;1253;62398;-90
2022/01/10 04:58:35;;;;;;;17.20;9.70;;;;;;;0.85;82.23;100546.42;107371;1253;72320;-92
2022/01/10 05:01:06;;;;;;;18.60;10.90;;;;;;;0.79;81.84;100553.48;107580;1252;69600;-88
2022/01/10 05:03:36;;;;;;;19.20;10.50;;;;;;;0.57;82.46;100559.20;107383;1251;70617;-90
2022/01/10 05:06:06;;;;;;;17.90;9.90;;;;;;;0.61;83.15;100563.88;107179;1253;74600;-90
2022/01/10 05:08:35;;;;;;;17.80;9.80;;;;;;;0.69;82.53;100568.38;107065;1253;60931;-88
2022/01/10 05:11:05;;;;;;;17.40;10.00;;;;;;;0.73;82.46;100575.95;107235;1253;61799;-88
2022/01/10 05:13:35;;;;;;;17.60;9.10;;;;;;;0.68;82.25;100575.78;106752;1255;75684;-87
2022/01/10 05:16:04;;;;;;;16.80;9.20;;;;;;;0.70;82.19;100581.20;107251;1253;71845;-88
2022/01/10 05:18:34;;;;;;;13.40;8.80;;;;;;;0.71;82.48;100588.39;106991;1252;69928;-84
2022/01/10 05:21:03;;;;;;;17.50;9.20;;;;;;;0.73;81.68;100592.77;106849;1253;72731;-79
2022/01/10 05:23:32;;;;;;;16.80;8.90;;;;;;;0.71;81.85;100599.34;106780;1254;62005;-80
2022/01/10 05:26:02;;;;;;;19.30;9.90;;;;;;;0.69;81.61;100604.04;106893;1253;63291;-81
2022/01/10 05:28:31;;;;;;;15.30;9.30;;;;;;;0.75;81.56;100608.63;107103;1251;72326;-79
2022/01/10 05:31:01;;;;;;;19.60;10.20;;;;;;;0.72;81.13;100613.38;107130;1251;69981;-83
2022/01/10 05:33:36;;;;;;;16.30;9.40;;;;;;;0.49;80.83;100613.10;106585;1255;67992;-82
2022/01/10 05:36:05;;;;;;;16.60;9.40;;;;;;;0.56;80.92;100615.45;107032;1253;73865;-84
2022/01/10 05:38:35;;;;;;;18.10;10.70;;;;;;;0.56;80.97;100619.72;106905;1253;63607;-80
2022/01/10 05:41:04;;;;;;;17.70;10.10;;;;;;;0.54;80.73;100621.49;106799;1253;60995;-80
2022/01/10 05:43:34;;;;;;;19.30;11.50;;;;;;;0.49;80.72;100622.35;107067;1251;72454;-81
2022/01/10 05:46:06;;;;;;;18.80;10.50;;;;;;;0.39;80.54;100628.34;106922;1252;73290;-82
2022/01/10 05:48:39;;;;;;;21.60;10.90;;;;;;;0.40;80.76;100626.23;106776;1253;71375;-80
2022/01/10 05:51:08;;;;;;;17.40;10.20;;;;;;;0.47;80.73;100633.56;107081;1251;71391;-85
2022/01/10 05:53:37;;;;;;;20.20;10.40;;;;;;;0.45;80.48;100630.69;107036;1253;60017;-83
2022/01/10 05:56:06;;;;;;;21.30;11.00;;;;;;;0.36;80.37;100636.98;107150;1252;59553;-74
2022/01/10 05:58:47;;;;;;;19.50;10.60;;;;;;;0.39;80.64;100641.67;107088;1251;72256;-84
2022/01/10 06:01:16;;;;;;;19.50;10.90;;;;;;;0.37;80.40;100647.25;107233;1251;69595;-83
2022/01/10 06:03:47;;;;;;;17.00;9.90;;;;;;;0.32;80.54;100647.38;106975;1253;69031;-80
2022/01/10 06:06:18;;;;;;;20.80;12.60;;;;;;;0.32;80.55;100654.75;106973;1253;73945;-82
2022/01/10 06:08:47;;;;;;;20.10;10.60;;;;;;;0.17;80.47;100662.39;107098;1252;60940;-84
2022/01/10 06:11:16;;;;;;;21.10;10.50;;;;;;;0.28;80.41;100669.41;107148;1252;59539;-80
2022/01/10 06:13:47;;;;;;;20.20;11.00;;;;;;;0.27;80.39;100673.73;107139;1252;73856;-81
2022/01/10 06:16:16;;;;;;;22.00;12.30;;;;;;;0.31;80.41;100683.74;107265;1253;70868;-81
2022/01/10 06:18:47;;;;;;;20.00;11.40;;;;;;;0.32;79.97;100690.73;107147;1252;70624;-82
2022/01/10 06:21:15;;;;;;;21.40;11.70;;;;;;;0.33;79.73;100690.70;107317;1251;74523;-82
2022/01/10 06:23:45;;;;;;;25.40;13.50;;;;;;;0.30;80.12;100690.95;107217;1251;62938;-80
2022/01/10 06:26:14;;;;;;;20.70;11.50;;;;;;;0.25;79.95;100696.08;106961;1253;60382;-83
2022/01/10 06:28:44;;;;;;;20.60;11.70;;;;;;;0.27;80.27;100696.38;106962;1253;74835;-84
2022/01/10 06:31:13;;;;;;;24.90;14.00;;;;;;;0.26;79.72;100696.05;106965;1253;70116;-85
2022/01/10 06:33:55;;;;;;;24.30;13.00;;;;;;;0.27;80.03;100704.77;107211;1251;69858;-81
2022/01/10 06:36:24;;;;;;;20.80;12.00;;;;;;;0.24;80.00;100708.45;106868;1253;74128;-82
2022/01/10 06:38:53;;;;;;;25.50;14.80;;;;;;;0.25;80.22;100714.38;106687;1252;60255;-82
2022/01/10 06:41:22;;;;;;;24.60;14.20;;;;;;;0.21;79.69;100716.23;107157;1251;61428;-83
2022/01/10 06:43:51;;;;;;;24.40;12.50;;;;;;;0.24;79.68;100718.88;106882;1253;71772;-83
2022/01/10 06:46:21;;;;;;;20.90;12.50;;;;;;;0.26;79.86;100723.27;107143;1253;72241;-84
2022/01/10 06:48:50;;;;;;;20.20;11.70;;;;;;;0.28;79.61;100720.84;106997;1251;70529;-87
2022/01/10 06:51:21;;;;;;;21.60;12.90;;;;;;;0.30;79.54;100725.91;107499;1253;70924;-88
2022/01/10 06:53:51;;;;;;;23.00;12.20;;;;;;;0.27;79.67;100730.10;107706;1251;61956;-91
2022/01/10 06:56:21;;;;;;;20.30;11.40;;;;;;;0.32;79.51;100731.86;107965;1253;61430;-89
2022/01/10 06:58:51;;;;;;;20.10;11.50;;;;;;;0.29;79.51;100732.63;108588;1251;73704;-90
2022/01/10 07:01:26;;;;;;;22.90;13.20;;;;;;;0.32;79.66;100730.15;108299;1252;71885;-91
2022/01/10 07:03:57;;;;;;;21.30;11.30;;;;;;;0.35;79.60;100725.77;108063;1251;71009;-91
2022/01/10 07:06:27;;;;;;;20.90;11.50;;;;;;;0.25;79.28;100723.85;107802;1251;75407;-88
2022/01/10 07:08:56;;;;;;;22.90;13.00;;;;;;;0.38;80.08;100729.78;107473;1253;61732;-91
2022/01/10 07:11:33;;;;;;;24.20;13.40;;;;;;;0.39;79.65;100737.82;109264;1251;62228;-88
2022/01/10 07:14:04;;;;;;;22.40;12.10;;;;;;;0.43;79.33;100743.84;107893;1252;73023;-88
2022/01/10 07:16:35;;;;;;;23.80;11.40;;;;;;;0.38;78.91;100746.05;108246;1252;71326;-89
2022/01/10 07:19:06;;;;;;;21.70;11.70;;;;;;;0.29;78.99;100748.20;109588;1252;69707;-89
2022/01/10 07:21:39;;;;;;;23.40;13.10;;;;;;;0.25;79.51;100753.13;109347;1251;73453;-87
2022/01/10 07:24:13;;;;;;;22.00;12.10;;;;;;;0.30;79.46;100754.85;107766;1252;60130;-91
2022/01/10 07:26:43;;;;;;;22.30;12.40;;;;;;;0.44;79.55;100755.63;107685;1253;59718;-90
2022/01/10 07:29:12;;;;;;;21.90;12.40;;;;;;;0.34;79.03;100757.48;107667;1251;74847;-88
2022/01/10 07:31:42;;;;;;;25.30;12.70;;;;;;;0.40;78.69;100760.04;107954;1251;70230;-90
2022/01/10 07:34:14;;;;;;;22.80;12.20;;;;;;;0.42;78.86;100759.31;107518;1253;68267;-90
2022/01/10 07:36:44;;;;;;;23.20;12.90;;;;;;;0.45;79.04;100759.39;107440;1252;72129;-90
2022/01/10 07:39:13;;;;;;;24.30;12.90;;;;;;;0.43;78.90;100754.64;107903;1251;59532;-91
2022/01/10 07:41:46;;;;;;;23.70;13.30;;;;;;;0.48;78.75;100757.07;107919;1251;60561;-90
2022/01/10 07:44:25;;;;;;;25.30;13.40;;;;;;;0.49;78.16;100763.36;108126;1253;73398;-91
2022/01/10 07:46:58;;;;;;;22.60;12.70;;;;;;;0.42;78.49;100763.94;108114;1251;69817;-90
2022/01/10 07:49:27;;;;;;;;;;;;;;;0.46;78.80;100769.81;108204;1251;68027;-88
2022/01/10 07:51:57;;;;;;;22.40;12.50;;;;;;;0.38;78.38;100777.05;108547;1250;71583;-91
2022/01/10 07:54:27;;;;;;;27.30;14.20;;;;;;;0.39;78.43;100781.84;107963;1253;59618;-92
2022/01/10 07:56:56;;;;;;;29.30;12.80;;;;;;;0.36;78.56;100781.58;108137;1250;61112;-90
2022/01/10 07:59:25;;;;;;;27.30;15.60;;;;;;;0.30;78.97;100782.27;107679;1252;72830;-92
2022/01/10 08:01:54;;;;;;;25.60;13.60;;;;;;;0.35;79.10;100789.85;108282;1251;72802;-92
2022/01/10 08:04:23;;;;;;;24.40;13.40;;;;;;;0.44;78.57;100795.39;108474;1251;71324;-92
2022/01/10 08:06:53;;;;;;;25.40;13.90;;;;;;;0.41;77.79;100794.98;108267;1252;73477;-90
2022/01/10 08:09:22;;;;;;;23.40;12.90;;;;;;;0.35;77.71;100799.93;108405;1251;59677;-91
2022/01/10 08:11:53;;;;;;;22.70;11.30;;;;;;;0.36;77.61;100798.38;107499;1253;59735;-90
2022/01/10 08:14:23;;;;;;;21.50;12.50;;;;;;;0.36;77.38;100811.57;108074;1251;74889;-88
2022/01/10 08:16:52;;;;;;;24.20;13.10;;;;;;;0.24;76.76;100803.52;107730;1251;72268;-90
2022/01/10 08:19:21;;;;;;;22.90;12.90;;;;;;;0.20;76.40;100808.92;107504;1252;68583;-89
2022/01/10 08:21:50;;;;;;;24.00;13.90;;;;;;;0.11;76.70;100806.94;107714;1251;73616;-88
2022/01/10 08:24:19;;;;;;;22.00;12.40;;;;;;;0.07;76.94;100808.77;107478;1253;60427;-90
2022/01/10 08:26:50;;;;;;;27.10;13.70;;;;;;;0.07;77.48;100807.42;107825;1252;61655;-89
2022/01/10 08:29:20;;;;;;;24.40;12.90;;;;;;;0.14;77.06;100813.90;107841;1253;73303;-90
2022/01/10 08:31:50;;;;;;;22.70;13.00;;;;;;;0.18;76.84;100814.48;107429;1251;71076;-93
2022/01/10 08:34:21;;;;;;;26.70;13.80;;;;;;;0.11;77.35;100815.03;107515;1253;69502;-89
2022/01/10 08:36:54;;;;;;;19.30;10.20;;;;;;;0.24;77.12;100816.15;107487;1251;71221;-92
2022/01/10 08:39:23;;;;;;;;;;;;;;;0.05;77.09;100824.23;107445;1253;60064;-90
2022/01/10 08:41:52;;;;;;;24.90;12.40;;;;;;;0.07;77.30;100830.71;107369;1252;58839;-92
2022/01/10 08:44:21;;;;;;;20.20;11.40;;;;;;;0.12;77.20;100831.07;107596;1251;71523;-91
2022/01/10 08:46:51;;;;;;;23.80;12.20;;;;;;;0.05;77.22;100831.77;107767;1253;69605;-91
2022/01/10 08:49:21;;;;;;;31.60;15.60;;;;;;;0.12;77.31;100842.38;107528;1252;68552;-90
2022/01/10 08:51:54;;;;;;;30.40;15.30;;;;;;;0.21;77.24;100847.77;107355;1253;73139;-90
2022/01/10 08:54:24;;;;;;;27.20;14.60;;;;;;;0.08;77.24;100845.06;107240;1253;59554;-88
2022/01/10 08:56:53;;;;;;;27.90;14.60;;;;;;;0.02;77.19;100847.62;107585;1253;61482;-87
2022/01/10 08:59:23;;;;;;;25.30;12.90;;;;;;;0.12;77.10;100850.27;107477;1252;72791;-88
2022/01/10 09:01:52;;;;;;;20.30;10.40;;;;;;;0.12;76.86;100845.98;107538;1253;69580;-91
2022/01/10 09:04:22;;;;;;;24.90;13.70;;;;;;;0.08;76.99;100849.16;107698;1253;68474;-88
2022/01/10 09:06:55;;;;;;;27.40;14.40;;;;;;;0.12;77.03;100853.16;107303;1253;74754;-90
2022/01/10 09:09:25;;;;;;;23.00;12.60;;;;;;;0.12;77.17;100847.69;107449;1254;61053;-90
2022/01/10 09:11:54;;;;;;;27.70;14.70;;;;;;;0.18;77.28;100845.98;107678;1253;60511;-91
2022/01/10 09:14:24;;;;;;;26.70;12.40;;;;;;;0.27;77.23;100847.80;107653;1250;75034;-90
2022/01/10 09:16:53;;;;;;;22.50;11.50;;;;;;;0.35;77.17;100847.75;107656;1251;70037;-92
2022/01/10 09:19:22;;;;;;;27.80;17.00;;;;;;;0.16;77.10;100849.80;107796;1250;69668;-89
2022/01/10 09:21:51;;;;;;;26.40;13.70;;;;;;;-0.08;77.50;100851.65;108894;1252;71236;-89
2022/01/10 09:24:21;;;;;;;28.10;15.10;;;;;;;0.10;77.46;100850.48;108100;1254;59801;-90
2022/01/10 09:26:49;;;;;;;29.70;15.20;;;;;;;0.24;76.91;100856.94;107574;1251;62166;-87
2022/01/10 09:29:19;;;;;;;25.10;13.50;;;;;;;0.26;76.66;100857.91;107412;1253;74806;-86
2022/01/10 09:31:48;;;;;;;29.70;14.80;;;;;;;0.29;76.58;100852.54;107713;1251;72775;-88
2022/01/10 09:34:17;;;;;;;28.60;14.90;;;;;;;0.21;76.69;100855.66;107757;1253;68337;-87
2022/01/10 09:36:47;;;;;;;32.10;16.50;;;;;;;0.22;77.10;100857.01;108391;1253;73567;-88
2022/01/10 09:39:16;;;;;;;28.50;13.90;;;;;;;0.27;77.51;100855.67;108444;1252;58968;-89
2022/01/10 09:41:48;;;;;;;24.50;11.70;;;;;;;0.34;76.90;100853.58;108237;1251;58935;-90
2022/01/10 09:44:17;;;;;;;26.00;13.40;;;;;;;0.34;76.43;100856.86;108516;1252;73828;-91
2022/01/10 09:46:49;;;;;;;29.90;15.40;;;;;;;0.43;76.29;100856.43;108675;1251;69600;-91
2022/01/10 09:49:19;;;;;;;27.90;14.60;;;;;;;0.29;76.64;100850.64;108905;1251;69996;-90
2022/01/10 09:51:49;;;;;;;20.50;10.50;;;;;;;0.30;76.52;100856.12;108816;1251;73672;-88
2022/01/10 09:54:18;;;;;;;27.70;14.40;;;;;;;0.44;76.09;100852.45;108978;1251;60180;-89
2022/01/10 09:56:49;;;;;;;29.90;14.40;;;;;;;0.44;76.09;100857.09;109084;1252;62209;-92
2022/01/10 09:59:18;;;;;;;25.60;12.90;;;;;;;0.41;76.14;100857.16;108363;1251;74205;-87
2022/01/10 10:01:50;;;;;;;24.30;12.90;;;;;;;0.53;75.88;100857.69;108243;1253;72060;-88
2022/01/10 10:04:20;;;;;;;28.30;13.50;;;;;;;0.39;76.46;100859.27;108933;1251;69989;-88
2022/01/10 10:06:50;;;;;;;26.10;13.70;;;;;;;0.53;75.83;100858.02;108240;1253;72480;-84
2022/01/10 10:09:22;;;;;;;27.50;14.60;;;;;;;0.50;75.13;100857.59;107896;1254;58955;-85
2022/01/10 10:11:52;;;;;;;32.90;16.40;;;;;;;0.46;76.04;100855.49;107632;1252;59763;-80
2022/01/10 10:14:23;;;;;;;30.20;15.30;;;;;;;0.62;75.89;100855.89;107502;1253;74201;-83
2022/01/10 10:16:56;;;;;;;22.70;11.50;;;;;;;0.62;75.21;100856.91;107895;1253;72340;-86
2022/01/10 10:19:29;;;;;;;20.30;11.60;;;;;;;0.59;74.85;100865.58;107985;1253;70686;-89
2022/01/10 10:22:00;;;;;;;23.60;12.50;;;;;;;0.49;74.58;100868.94;108687;1252;72054;-89
2022/01/10 10:24:28;;;;;;;22.60;11.90;;;;;;;0.60;74.34;100869.48;109062;1253;59829;-90
2022/01/10 10:26:58;;;;;;;22.40;14.00;;;;;;;0.43;74.48;100875.78;109134;1251;58971;-90
2022/01/10 10:29:29;;;;;;;22.50;12.90;;;;;;;0.57;74.82;100876.07;109131;1251;71715;-90
2022/01/10 10:32:02;;;;;;;24.00;13.10;;;;;;;0.70;73.92;100872.96;109391;1251;69604;-86
2022/01/10 10:34:33;;;;;;;25.40;15.10;;;;;;;0.75;73.51;100874.86;109080;1251;67971;-89
2022/01/10 10:37:06;;;;;;;21.90;12.70;;;;;;;0.58;73.74;100872.61;109024;1252;74328;-87
2022/01/10 10:39:43;;;;;;;22.80;13.70;;;;;;;0.70;73.58;100871.09;109255;1251;58814;-91
2022/01/10 10:42:16;;;;;;;17.90;10.30;;;;;;;0.76;73.66;100877.23;109559;1240;60352;-86
2022/01/10 10:44:45;;;;;;;25.80;14.60;;;;;;;0.74;72.96;100879.20;109349;1251;72307;-89
2022/01/10 10:47:17;;;;;;;21.50;12.60;;;;;;;0.59;73.45;100878.77;108967;1252;69616;-89
2022/01/10 10:49:51;;;;;;;21.50;11.20;;;;;;;0.62;73.66;100877.64;108963;1252;71667;-85
2022/01/10 10:52:21;;;;;;;22.60;12.20;;;;;;;0.64;73.49;100879.81;109155;1251;74755;-89
2022/01/10 10:54:49;;;;;;;20.70;11.60;;;;;;;0.53;73.79;100884.24;109038;1251;59572;-89
2022/01/10 10:57:21;;;;;;;24.60;13.00;;;;;;;0.40;73.53;100886.15;109176;1251;58981;-90
2022/01/10 10:59:50;;;;;;;16.40;8.90;;;;;;;0.49;73.72;100886.77;108455;1252;72850;-86
2022/01/10 11:02:21;;;;;;;25.30;13.50;;;;;;;0.31;73.92;100888.81;107520;1252;70136;-82
2022/01/10 11:04:53;;;;;;;25.00;12.60;;;;;;;0.38;74.01;100889.30;107427;1252;70702;-85
2022/01/10 11:07:24;;;;;;;27.30;13.40;;;;;;;0.38;73.73;100894.42;107430;1251;74753;-81
2022/01/10 11:10:14;;;;;;;25.10;13.10;;;;;;;0.23;74.60;100896.72;107921;1251;60425;-83
2022/01/10 11:12:52;;;;;;;23.90;11.90;;;;;;;0.29;74.37;100899.15;107509;1252;59312;-80
2022/01/10 11:15:24;;;;;;;18.50;9.70;;;;;;;0.31;74.36;100910.55;107963;1251;73701;-86
2022/01/10 11:18:00;;;;;;;25.30;13.60;;;;;;;0.30;74.00;100915.73;108029;1252;72631;-83
2022/01/10 11:20:47;;;;;;;24.00;14.10;;;;;;;0.28;73.56;100913.38;107984;1252;70244;-89
2022/01/10 11:23:46;;;;;;;24.20;13.20;;;;;;;0.32;73.84;100921.50;109012;1251;73652;-85
2022/01/10 11:26:17;;;;;;;21.70;10.30;;;;;;;0.28;73.63;100927.09;107826;1251;58801;-86
2022/01/10 11:28:56;;;;;;;21.70;12.00;;;;;;;0.23;73.34;100934.05;108167;1252;61794;-86
2022/01/10 11:31:28;;;;;;;21.90;9.80;;;;;;;0.28;73.53;100934.62;108300;1252;72185;-82
2022/01/10 11:33:59;;;;;;;22.90;13.50;;;;;;;0.32;73.64;100940.35;108056;1251;69624;-83
2022/01/10 11:36:29;;;;;;;26.90;15.00;;;;;;;0.34;73.78;100947.33;107914;1251;69778;-84
2022/01/10 11:39:01;;;;;;;23.80;13.40;;;;;;;0.30;73.57;100947.41;108194;1250;71567;-85